Terminal Aerodrome Forecast
Issued by NWS

Home | Current Version | Previous Version | Text Only | Print | Product List | Glossary On
Versions: 1 2 3 4 5 6 7 8 9 10 11 12 13 14 15
389
FTUS46 KHNX 111348 AAA
TAFVIS
TAF AMD
KVIS 111348Z 1114/1212 00000KT 4SM BR FEW200
      TEMPO 1114/1117 1/4SM FG OVC001
     FM112000 VRB03KT P6SM FEW250=

USA.gov is the U.S. government's official web portal to all federal, state and local government web resources and services.